Terminal Aerodrome Forecast
Issued by NWS

Current Version | Previous Version | Text Only | Print | Product List | Glossary On
Versions: 1 2 3 4 5 6 7 8 9 10 11 12 13 14
000
FTUS45 KRIW 252300
TAFCPR
TAF
KCPR 252331Z 2600/2624 02014G20KT P6SM VCSH SCT040 BKN080
     FM260230 04014KT P6SM VCSH BKN030
     FM260600 04008KT 6SM -RA BR SCT008 OVC015
     FM261800 03015KT 5SM -RA SCT005 OVC015=

USA.gov is the U.S. government's official web portal to all federal, state and local government web resources and services.